sensor_id;sensor_type;location;lat;lon;timestamp;P1;durP1;ratioP1;P2;durP2;ratioP2
11269;SDS011;5692;48.956;9.200;2022-07-10T00:01:26;210.48;;;200.40;;
11269;SDS011;5692;48.956;9.200;2022-07-10T00:03:52;217.70;;;207.27;;
11269;SDS011;5692;48.956;9.200;2022-07-10T00:06:21;209.88;;;199.82;;
11269;SDS011;5692;48.956;9.200;2022-07-10T00:08:50;202.43;;;192.73;;
11269;SDS011;5692;48.956;9.200;2022-07-10T00:11:19;199.18;;;189.63;;
11269;SDS011;5692;48.956;9.200;2022-07-10T00:13:47;198.40;;;188.90;;
11269;SDS011;5692;48.956;9.200;2022-07-10T00:16:16;202.15;;;192.45;;
11269;SDS011;5692;48.956;9.200;2022-07-10T00:18:42;206.02;;;196.15;;
11269;SDS011;5692;48.956;9.200;2022-07-10T00:21:08;203.25;;;193.55;;
11269;SDS011;5692;48.956;9.200;2022-07-10T00:23:34;203.52;;;193.77;;
11269;SDS011;5692;48.956;9.200;2022-07-10T00:26:00;203.57;;;193.82;;
11269;SDS011;5692;48.956;9.200;2022-07-10T00:28:26;199.93;;;190.32;;
11269;SDS011;5692;48.956;9.200;2022-07-10T00:30:52;202.00;;;192.32;;
11269;SDS011;5692;48.956;9.200;2022-07-10T00:33:19;205.85;;;196.00;;
11269;SDS011;5692;48.956;9.200;2022-07-10T00:35:45;218.90;;;208.40;;
11269;SDS011;5692;48.956;9.200;2022-07-10T00:38:11;217.20;;;206.80;;
11269;SDS011;5692;48.956;9.200;2022-07-10T00:40:39;215.02;;;204.73;;
11269;SDS011;5692;48.956;9.200;2022-07-10T00:43:08;214.85;;;204.57;;
11269;SDS011;5692;48.956;9.200;2022-07-10T00:45:39;224.80;;;214.05;;
11269;SDS011;5692;48.956;9.200;2022-07-10T00:48:05;216.70;;;206.35;;
11269;SDS011;5692;48.956;9.200;2022-07-10T00:50:31;226.63;;;215.80;;
11269;SDS011;5692;48.956;9.200;2022-07-10T00:52:58;219.85;;;209.32;;
11269;SDS011;5692;48.956;9.200;2022-07-10T00:55:24;203.23;;;193.52;;
11269;SDS011;5692;48.956;9.200;2022-07-10T00:57:50;197.75;;;188.27;;
11269;SDS011;5692;48.956;9.200;2022-07-10T01:00:19;200.70;;;191.10;;
11269;SDS011;5692;48.956;9.200;2022-07-10T01:02:47;216.55;;;206.18;;
11269;SDS011;5692;48.956;9.200;2022-07-10T01:05:13;206.50;;;196.60;;
11269;SDS011;5692;48.956;9.200;2022-07-10T01:07:41;200.75;;;191.15;;
11269;SDS011;5692;48.956;9.200;2022-07-10T01:10:07;205.25;;;195.45;;
11269;SDS011;5692;48.956;9.200;2022-07-10T01:12:34;212.15;;;202.00;;
11269;SDS011;5692;48.956;9.200;2022-07-10T01:15:00;193.35;;;184.07;;
11269;SDS011;5692;48.956;9.200;2022-07-10T01:17:26;203.30;;;193.57;;
11269;SDS011;5692;48.956;9.200;2022-07-10T01:19:54;211.20;;;201.10;;
11269;SDS011;5692;48.956;9.200;2022-07-10T01:22:22;215.60;;;205.30;;
11269;SDS011;5692;48.956;9.200;2022-07-10T01:24:51;208.02;;;198.07;;
11269;SDS011;5692;48.956;9.200;2022-07-10T01:27:17;201.48;;;191.85;;
11269;SDS011;5692;48.956;9.200;2022-07-10T01:29:43;193.40;;;184.13;;
11269;SDS011;5692;48.956;9.200;2022-07-10T01:32:10;203.95;;;194.15;;
11269;SDS011;5692;48.956;9.200;2022-07-10T01:34:36;217.02;;;206.65;;
11269;SDS011;5692;48.956;9.200;2022-07-10T01:37:07;207.75;;;197.82;;
11269;SDS011;5692;48.956;9.200;2022-07-10T01:39:33;194.73;;;185.38;;
11269;SDS011;5692;48.956;9.200;2022-07-10T01:41:59;206.10;;;196.20;;
11269;SDS011;5692;48.956;9.200;2022-07-10T01:44:25;213.25;;;203.05;;
11269;SDS011;5692;48.956;9.200;2022-07-10T01:46:51;198.90;;;189.40;;
11269;SDS011;5692;48.956;9.200;2022-07-10T01:49:17;213.02;;;202.82;;
11269;SDS011;5692;48.956;9.200;2022-07-10T01:51:43;214.20;;;203.95;;
11269;SDS011;5692;48.956;9.200;2022-07-10T01:54:09;210.55;;;200.45;;
11269;SDS011;5692;48.956;9.200;2022-07-10T01:56:35;204.02;;;194.27;;
11269;SDS011;5692;48.956;9.200;2022-07-10T01:59:04;210.90;;;200.80;;
11269;SDS011;5692;48.956;9.200;2022-07-10T02:01:30;212.77;;;202.57;;
11269;SDS011;5692;48.956;9.200;2022-07-10T02:03:56;197.57;;;188.10;;
11269;SDS011;5692;48.956;9.200;2022-07-10T02:06:41;213.27;;;203.07;;
11269;SDS011;5692;48.956;9.200;2022-07-10T02:09:09;195.77;;;186.38;;
11269;SDS011;5692;48.956;9.200;2022-07-10T02:11:36;191.32;;;182.15;;
11269;SDS011;5692;48.956;9.200;2022-07-10T02:14:02;198.82;;;189.32;;
11269;SDS011;5692;48.956;9.200;2022-07-10T02:16:30;195.73;;;186.32;;
11269;SDS011;5692;48.956;9.200;2022-07-10T02:18:56;201.65;;;192.00;;
11269;SDS011;5692;48.956;9.200;2022-07-10T02:21:22;190.15;;;181.05;;
11269;SDS011;5692;48.956;9.200;2022-07-10T02:23:51;211.15;;;201.05;;
11269;SDS011;5692;48.956;9.200;2022-07-10T02:26:17;195.35;;;186.00;;
11269;SDS011;5692;48.956;9.200;2022-07-10T02:28:43;195.38;;;186.02;;
11269;SDS011;5692;48.956;9.200;2022-07-10T02:31:09;190.35;;;181.25;;
11269;SDS011;5692;48.956;9.200;2022-07-10T02:33:35;193.07;;;183.82;;
11269;SDS011;5692;48.956;9.200;2022-07-10T02:36:01;209.25;;;199.25;;
11269;SDS011;5692;48.956;9.200;2022-07-10T02:38:28;214.35;;;204.07;;
11269;SDS011;5692;48.956;9.200;2022-07-10T02:40:54;220.38;;;209.82;;
11269;SDS011;5692;48.956;9.200;2022-07-10T02:43:20;216.57;;;206.18;;
11269;SDS011;5692;48.956;9.200;2022-07-10T02:45:48;222.73;;;212.07;;
11269;SDS011;5692;48.956;9.200;2022-07-10T02:48:15;228.70;;;217.80;;
11269;SDS011;5692;48.956;9.200;2022-07-10T02:50:43;217.95;;;207.55;;
11269;SDS011;5692;48.956;9.200;2022-07-10T02:53:14;211.30;;;201.20;;
11269;SDS011;5692;48.956;9.200;2022-07-10T02:55:40;227.15;;;216.27;;
11269;SDS011;5692;48.956;9.200;2022-07-10T02:58:08;226.18;;;215.38;;
11269;SDS011;5692;48.956;9.200;2022-07-10T03:00:35;228.25;;;217.32;;
11269;SDS011;5692;48.956;9.200;2022-07-10T03:03:01;217.73;;;207.32;;
11269;SDS011;5692;48.956;9.200;2022-07-10T03:05:29;225.70;;;214.90;;
11269;SDS011;5692;48.956;9.200;2022-07-10T03:07:55;217.75;;;207.35;;
11269;SDS011;5692;48.956;9.200;2022-07-10T03:10:24;219.93;;;209.40;;
11269;SDS011;5692;48.956;9.200;2022-07-10T03:12:50;196.15;;;186.75;;
11269;SDS011;5692;48.956;9.200;2022-07-10T03:15:22;227.77;;;216.88;;
11269;SDS011;5692;48.956;9.200;2022-07-10T03:17:49;211.13;;;201.02;;
11269;SDS011;5692;48.956;9.200;2022-07-10T03:20:15;214.55;;;204.27;;
11269;SDS011;5692;48.956;9.200;2022-07-10T03:22:41;211.63;;;201.52;;
11269;SDS011;5692;48.956;9.200;2022-07-10T03:25:07;228.25;;;217.35;;
11269;SDS011;5692;48.956;9.200;2022-07-10T03:27:36;226.77;;;215.93;;
11269;SDS011;5692;48.956;9.200;2022-07-10T03:30:09;225.45;;;214.68;;
11269;SDS011;5692;48.956;9.200;2022-07-10T03:32:38;209.45;;;199.43;;
11269;SDS011;5692;48.956;9.200;2022-07-10T03:37:56;216.40;;;206.05;;
11269;SDS011;5692;48.956;9.200;2022-07-10T03:40:25;214.18;;;203.93;;
11269;SDS011;5692;48.956;9.200;2022-07-10T03:42:51;230.10;;;219.10;;
11269;SDS011;5692;48.956;9.200;2022-07-10T03:45:18;223.07;;;212.40;;
11269;SDS011;5692;48.956;9.200;2022-07-10T03:47:44;229.23;;;218.25;;
11269;SDS011;5692;48.956;9.200;2022-07-10T03:50:10;222.82;;;212.18;;
11269;SDS011;5692;48.956;9.200;2022-07-10T03:52:36;208.82;;;198.82;;
11269;SDS011;5692;48.956;9.200;2022-07-10T03:55:10;220.68;;;210.10;;
11269;SDS011;5692;48.956;9.200;2022-07-10T03:57:39;203.25;;;193.55;;
11269;SDS011;5692;48.956;9.200;2022-07-10T04:00:22;199.05;;;189.52;;
11269;SDS011;5692;48.956;9.200;2022-07-10T04:02:55;208.10;;;198.13;;
11269;SDS011;5692;48.956;9.200;2022-07-10T04:05:22;205.18;;;195.35;;
11269;SDS011;5692;48.956;9.200;2022-07-10T04:07:51;197.15;;;187.73;;
11269;SDS011;5692;48.956;9.200;2022-07-10T04:10:23;197.38;;;187.93;;
11269;SDS011;5692;48.956;9.200;2022-07-10T04:12:49;175.43;;;167.02;;
11269;SDS011;5692;48.956;9.200;2022-07-10T04:15:19;181.80;;;173.07;;
11269;SDS011;5692;48.956;9.200;2022-07-10T04:17:46;191.27;;;182.13;;
11269;SDS011;5692;48.956;9.200;2022-07-10T04:20:15;186.07;;;177.18;;
11269;SDS011;5692;48.956;9.200;2022-07-10T04:22:44;197.10;;;187.65;;
11269;SDS011;5692;48.956;9.200;2022-07-10T04:25:13;181.02;;;172.32;;
11269;SDS011;5692;48.956;9.200;2022-07-10T04:27:48;175.70;;;167.30;;
11269;SDS011;5692;48.956;9.200;2022-07-10T04:33:06;180.27;;;171.68;;
11269;SDS011;5692;48.956;9.200;2022-07-10T04:35:32;173.00;;;164.70;;
11269;SDS011;5692;48.956;9.200;2022-07-10T04:37:58;197.25;;;187.80;;
11269;SDS011;5692;48.956;9.200;2022-07-10T04:40:24;188.07;;;179.05;;
11269;SDS011;5692;48.956;9.200;2022-07-10T04:42:50;191.48;;;182.27;;
11269;SDS011;5692;48.956;9.200;2022-07-10T04:45:19;186.00;;;177.10;;
11269;SDS011;5692;48.956;9.200;2022-07-10T04:47:48;176.95;;;168.48;;
11269;SDS011;5692;48.956;9.200;2022-07-10T04:50:17;185.35;;;176.45;;
11269;SDS011;5692;48.956;9.200;2022-07-10T04:52:46;186.63;;;177.73;;
11269;SDS011;5692;48.956;9.200;2022-07-10T04:55:16;193.90;;;184.60;;
11269;SDS011;5692;48.956;9.200;2022-07-10T04:57:46;186.70;;;177.75;;
11269;SDS011;5692;48.956;9.200;2022-07-10T05:00:21;196.48;;;187.07;;
11269;SDS011;5692;48.956;9.200;2022-07-10T05:02:50;187.25;;;178.27;;
11269;SDS011;5692;48.956;9.200;2022-07-10T05:05:16;184.32;;;175.52;;
11269;SDS011;5692;48.956;9.200;2022-07-10T05:07:42;181.90;;;173.18;;
11269;SDS011;5692;48.956;9.200;2022-07-10T05:10:26;189.43;;;180.32;;
11269;SDS011;5692;48.956;9.200;2022-07-10T05:12:57;188.15;;;179.15;;
11269;SDS011;5692;48.956;9.200;2022-07-10T05:15:23;179.32;;;170.73;;
11269;SDS011;5692;48.956;9.200;2022-07-10T05:17:52;191.98;;;182.77;;
11269;SDS011;5692;48.956;9.200;2022-07-10T05:20:18;191.13;;;181.98;;
11269;SDS011;5692;48.956;9.200;2022-07-10T05:22:50;187.90;;;178.90;;
11269;SDS011;5692;48.956;9.200;2022-07-10T05:25:16;190.30;;;181.20;;
11269;SDS011;5692;48.956;9.200;2022-07-10T05:27:42;181.50;;;172.80;;
11269;SDS011;5692;48.956;9.200;2022-07-10T05:30:09;190.75;;;181.60;;
11269;SDS011;5692;48.956;9.200;2022-07-10T05:32:44;192.35;;;183.15;;
11269;SDS011;5692;48.956;9.200;2022-07-10T05:35:11;193.43;;;184.18;;
11269;SDS011;5692;48.956;9.200;2022-07-10T05:37:40;196.57;;;187.15;;
11269;SDS011;5692;48.956;9.200;2022-07-10T05:40:06;177.70;;;169.20;;
11269;SDS011;5692;48.956;9.200;2022-07-10T05:42:35;183.45;;;174.68;;
11269;SDS011;5692;48.956;9.200;2022-07-10T05:45:01;188.00;;;179.00;;
11269;SDS011;5692;48.956;9.200;2022-07-10T05:47:31;198.07;;;188.57;;
11269;SDS011;5692;48.956;9.200;2022-07-10T05:49:58;201.98;;;192.30;;
11269;SDS011;5692;48.956;9.200;2022-07-10T05:52:29;189.48;;;180.43;;
11269;SDS011;5692;48.956;9.200;2022-07-10T05:54:58;200.65;;;191.05;;
11269;SDS011;5692;48.956;9.200;2022-07-10T05:57:24;197.80;;;188.32;;
11269;SDS011;5692;48.956;9.200;2022-07-10T05:59:51;198.32;;;188.85;;
11269;SDS011;5692;48.956;9.200;2022-07-10T06:02:23;201.50;;;191.85;;
11269;SDS011;5692;48.956;9.200;2022-07-10T06:04:49;207.40;;;197.50;;
11269;SDS011;5692;48.956;9.200;2022-07-10T06:07:15;186.75;;;177.80;;
11269;SDS011;5692;48.956;9.200;2022-07-10T06:09:44;182.52;;;173.77;;
11269;SDS011;5692;48.956;9.200;2022-07-10T06:12:13;194.95;;;185.65;;
11269;SDS011;5692;48.956;9.200;2022-07-10T06:14:40;178.85;;;170.27;;
11269;SDS011;5692;48.956;9.200;2022-07-10T06:17:07;185.32;;;176.43;;
11269;SDS011;5692;48.956;9.200;2022-07-10T06:19:33;190.48;;;181.35;;
11269;SDS011;5692;48.956;9.200;2022-07-10T06:22:02;191.60;;;182.43;;
11269;SDS011;5692;48.956;9.200;2022-07-10T06:24:47;178.13;;;169.60;;
11269;SDS011;5692;48.956;9.200;2022-07-10T06:27:13;183.25;;;174.48;;
11269;SDS011;5692;48.956;9.200;2022-07-10T06:29:45;189.65;;;180.57;;
11269;SDS011;5692;48.956;9.200;2022-07-10T06:32:11;189.60;;;180.50;;
11269;SDS011;5692;48.956;9.200;2022-07-10T06:34:40;185.48;;;176.57;;
11269;SDS011;5692;48.956;9.200;2022-07-10T06:37:06;187.82;;;178.82;;
11269;SDS011;5692;48.956;9.200;2022-07-10T06:39:37;177.93;;;169.43;;
11269;SDS011;5692;48.956;9.200;2022-07-10T06:42:06;199.00;;;189.48;;
11269;SDS011;5692;48.956;9.200;2022-07-10T06:44:33;195.32;;;185.98;;
11269;SDS011;5692;48.956;9.200;2022-07-10T06:46:59;194.13;;;184.82;;
11269;SDS011;5692;48.956;9.200;2022-07-10T06:49:45;194.05;;;184.75;;
11269;SDS011;5692;48.956;9.200;2022-07-10T06:52:11;192.27;;;183.07;;
11269;SDS011;5692;48.956;9.200;2022-07-10T06:54:38;181.32;;;172.63;;
11269;SDS011;5692;48.956;9.200;2022-07-10T06:57:09;186.82;;;177.90;;
11269;SDS011;5692;48.956;9.200;2022-07-10T06:59:35;199.27;;;189.73;;
11269;SDS011;5692;48.956;9.200;2022-07-10T07:02:01;183.32;;;174.55;;
11269;SDS011;5692;48.956;9.200;2022-07-10T07:04:28;186.45;;;177.52;;
11269;SDS011;5692;48.956;9.200;2022-07-10T07:06:56;197.50;;;188.05;;
11269;SDS011;5692;48.956;9.200;2022-07-10T07:09:22;181.68;;;172.98;;
11269;SDS011;5692;48.956;9.200;2022-07-10T07:11:52;183.50;;;174.70;;
11269;SDS011;5692;48.956;9.200;2022-07-10T07:14:23;191.35;;;182.20;;
11269;SDS011;5692;48.956;9.200;2022-07-10T07:16:55;199.10;;;189.55;;
11269;SDS011;5692;48.956;9.200;2022-07-10T07:19:23;187.10;;;178.13;;
11269;SDS011;5692;48.956;9.200;2022-07-10T07:22:05;190.27;;;181.18;;
11269;SDS011;5692;48.956;9.200;2022-07-10T07:24:49;193.75;;;184.45;;
11269;SDS011;5692;48.956;9.200;2022-07-10T07:27:16;185.15;;;176.25;;
11269;SDS011;5692;48.956;9.200;2022-07-10T07:29:42;198.93;;;189.43;;
11269;SDS011;5692;48.956;9.200;2022-07-10T07:32:10;183.18;;;174.38;;
11269;SDS011;5692;48.956;9.200;2022-07-10T07:34:39;189.90;;;180.80;;
11269;SDS011;5692;48.956;9.200;2022-07-10T07:37:05;179.75;;;171.15;;
11269;SDS011;5692;48.956;9.200;2022-07-10T07:39:34;187.70;;;178.73;;
11269;SDS011;5692;48.956;9.200;2022-07-10T07:42:02;184.30;;;175.48;;
11269;SDS011;5692;48.956;9.200;2022-07-10T07:44:28;193.90;;;184.63;;
11269;SDS011;5692;48.956;9.200;2022-07-10T07:46:59;176.07;;;167.63;;
11269;SDS011;5692;48.956;9.200;2022-07-10T07:49:26;172.30;;;164.05;;
11269;SDS011;5692;48.956;9.200;2022-07-10T07:51:57;191.93;;;182.73;;
11269;SDS011;5692;48.956;9.200;2022-07-10T07:54:25;172.55;;;164.25;;
11269;SDS011;5692;48.956;9.200;2022-07-10T07:56:51;195.05;;;185.73;;
11269;SDS011;5692;48.956;9.200;2022-07-10T07:59:20;196.38;;;186.98;;
11269;SDS011;5692;48.956;9.200;2022-07-10T08:01:54;194.05;;;184.75;;
11269;SDS011;5692;48.956;9.200;2022-07-10T08:04:21;179.70;;;171.10;;
11269;SDS011;5692;48.956;9.200;2022-07-10T08:06:47;177.10;;;168.60;;
11269;SDS011;5692;48.956;9.200;2022-07-10T08:09:19;180.85;;;172.15;;
11269;SDS011;5692;48.956;9.200;2022-07-10T08:11:49;184.50;;;175.65;;
11269;SDS011;5692;48.956;9.200;2022-07-10T08:14:15;187.38;;;178.38;;
11269;SDS011;5692;48.956;9.200;2022-07-10T08:16:44;193.63;;;184.32;;
11269;SDS011;5692;48.956;9.200;2022-07-10T08:19:10;219.73;;;209.20;;
11269;SDS011;5692;48.956;9.200;2022-07-10T08:21:39;205.35;;;195.52;;
11269;SDS011;5692;48.956;9.200;2022-07-10T08:24:05;204.85;;;195.02;;
11269;SDS011;5692;48.956;9.200;2022-07-10T08:26:31;203.50;;;193.77;;
11269;SDS011;5692;48.956;9.200;2022-07-10T08:29:00;194.77;;;185.45;;
11269;SDS011;5692;48.956;9.200;2022-07-10T08:31:26;190.82;;;181.70;;
11269;SDS011;5692;48.956;9.200;2022-07-10T08:33:55;200.65;;;191.05;;
11269;SDS011;5692;48.956;9.200;2022-07-10T08:36:24;209.05;;;199.05;;
11269;SDS011;5692;48.956;9.200;2022-07-10T08:38:51;202.27;;;192.60;;
11269;SDS011;5692;48.956;9.200;2022-07-10T08:41:21;207.82;;;197.88;;
11269;SDS011;5692;48.956;9.200;2022-07-10T08:43:49;203.13;;;193.40;;
11269;SDS011;5692;48.956;9.200;2022-07-10T08:46:16;193.00;;;183.77;;
11269;SDS011;5692;48.956;9.200;2022-07-10T08:48:46;206.20;;;196.32;;
11269;SDS011;5692;48.956;9.200;2022-07-10T08:51:14;195.82;;;186.45;;
11269;SDS011;5692;48.956;9.200;2022-07-10T08:53:44;187.07;;;178.13;;
11269;SDS011;5692;48.956;9.200;2022-07-10T08:56:11;203.57;;;193.82;;
11269;SDS011;5692;48.956;9.200;2022-07-10T08:58:36;200.95;;;191.35;;
11269;SDS011;5692;48.956;9.200;2022-07-10T09:01:03;188.30;;;179.30;;
11269;SDS011;5692;48.956;9.200;2022-07-10T09:03:29;180.80;;;172.15;;
11269;SDS011;5692;48.956;9.200;2022-07-10T09:05:56;182.52;;;173.80;;
11269;SDS011;5692;48.956;9.200;2022-07-10T09:08:25;190.40;;;181.30;;
11269;SDS011;5692;48.956;9.200;2022-07-10T09:11:05;206.65;;;196.77;;
11269;SDS011;5692;48.956;9.200;2022-07-10T09:13:55;208.40;;;198.43;;
11269;SDS011;5692;48.956;9.200;2022-07-10T09:18:51;186.40;;;177.50;;
11269;SDS011;5692;48.956;9.200;2022-07-10T09:21:17;189.50;;;180.43;;
11269;SDS011;5692;48.956;9.200;2022-07-10T09:23:43;196.02;;;186.63;;
11269;SDS011;5692;48.956;9.200;2022-07-10T09:26:16;215.60;;;205.30;;
11269;SDS011;5692;48.956;9.200;2022-07-10T09:28:46;191.52;;;182.32;;
11269;SDS011;5692;48.956;9.200;2022-07-10T09:31:17;203.30;;;193.55;;
11269;SDS011;5692;48.956;9.200;2022-07-10T09:33:49;204.73;;;194.93;;
11269;SDS011;5692;48.956;9.200;2022-07-10T09:36:17;187.95;;;178.95;;
11269;SDS011;5692;48.956;9.200;2022-07-10T09:41:29;202.88;;;193.18;;
11269;SDS011;5692;48.956;9.200;2022-07-10T09:44:07;203.65;;;193.93;;
11269;SDS011;5692;48.956;9.200;2022-07-10T09:46:42;221.82;;;211.20;;
11269;SDS011;5692;48.956;9.200;2022-07-10T09:49:13;210.48;;;200.40;;
11269;SDS011;5692;48.956;9.200;2022-07-10T09:51:40;214.98;;;204.70;;
11269;SDS011;5692;48.956;9.200;2022-07-10T09:54:10;203.98;;;194.20;;
11269;SDS011;5692;48.956;9.200;2022-07-10T09:56:46;207.32;;;197.43;;
11269;SDS011;5692;48.956;9.200;2022-07-10T09:59:21;199.52;;;189.98;;
11269;SDS011;5692;48.956;9.200;2022-07-10T10:01:50;194.00;;;184.73;;
11269;SDS011;5692;48.956;9.200;2022-07-10T10:04:25;204.77;;;194.98;;
11269;SDS011;5692;48.956;9.200;2022-07-10T10:06:58;190.27;;;181.18;;
11269;SDS011;5692;48.956;9.200;2022-07-10T10:12:39;202.13;;;192.45;;
11269;SDS011;5692;48.956;9.200;2022-07-10T10:15:14;192.95;;;183.73;;
11269;SDS011;5692;48.956;9.200;2022-07-10T10:17:40;176.30;;;167.88;;
11269;SDS011;5692;48.956;9.200;2022-07-10T10:20:15;189.40;;;180.32;;
11269;SDS011;5692;48.956;9.200;2022-07-10T10:23:04;199.40;;;189.85;;
11269;SDS011;5692;48.956;9.200;2022-07-10T10:25:45;189.05;;;180.00;;
11269;SDS011;5692;48.956;9.200;2022-07-10T10:28:18;196.20;;;186.80;;
11269;SDS011;5692;48.956;9.200;2022-07-10T10:30:59;195.85;;;186.48;;
11269;SDS011;5692;48.956;9.200;2022-07-10T10:39:03;203.95;;;194.18;;
11269;SDS011;5692;48.956;9.200;2022-07-10T10:41:53;208.80;;;198.80;;
11269;SDS011;5692;48.956;9.200;2022-07-10T10:44:29;200.82;;;191.23;;
11269;SDS011;5692;48.956;9.200;2022-07-10T10:47:00;196.90;;;187.50;;
11269;SDS011;5692;48.956;9.200;2022-07-10T10:52:30;205.95;;;196.10;;
11269;SDS011;5692;48.956;9.200;2022-07-10T10:55:06;218.70;;;208.25;;
11269;SDS011;5692;48.956;9.200;2022-07-10T10:57:46;203.70;;;193.95;;
11269;SDS011;5692;48.956;9.200;2022-07-10T11:00:33;215.27;;;204.98;;
11269;SDS011;5692;48.956;9.200;2022-07-10T11:03:12;209.88;;;199.85;;
11269;SDS011;5692;48.956;9.200;2022-07-10T11:05:39;197.02;;;187.60;;
11269;SDS011;5692;48.956;9.200;2022-07-10T11:08:34;202.93;;;193.23;;
11269;SDS011;5692;48.956;9.200;2022-07-10T11:14:03;206.05;;;196.20;;
11269;SDS011;5692;48.956;9.200;2022-07-10T11:16:39;215.75;;;205.43;;
11269;SDS011;5692;48.956;9.200;2022-07-10T11:19:30;218.07;;;207.68;;
11269;SDS011;5692;48.956;9.200;2022-07-10T11:27:29;203.20;;;193.50;;
11269;SDS011;5692;48.956;9.200;2022-07-10T11:30:02;213.70;;;203.45;;
11269;SDS011;5692;48.956;9.200;2022-07-10T11:32:31;213.07;;;202.88;;
11269;SDS011;5692;48.956;9.200;2022-07-10T11:34:59;217.48;;;207.05;;
11269;SDS011;5692;48.956;9.200;2022-07-10T11:37:27;189.07;;;180.02;;
11269;SDS011;5692;48.956;9.200;2022-07-10T11:40:08;189.90;;;180.80;;
11269;SDS011;5692;48.956;9.200;2022-07-10T11:47:50;213.23;;;203.00;;
11269;SDS011;5692;48.956;9.200;2022-07-10T11:50:17;206.38;;;196.50;;
11269;SDS011;5692;48.956;9.200;2022-07-10T11:52:43;198.00;;;188.52;;
11269;SDS011;5692;48.956;9.200;2022-07-10T11:55:18;195.18;;;185.82;;
11269;SDS011;5692;48.956;9.200;2022-07-10T11:57:47;191.20;;;182.05;;
11269;SDS011;5692;48.956;9.200;2022-07-10T12:00:27;199.23;;;189.68;;
11269;SDS011;5692;48.956;9.200;2022-07-10T12:03:15;190.90;;;181.75;;
11269;SDS011;5692;48.956;9.200;2022-07-10T12:05:44;208.85;;;198.85;;
11269;SDS011;5692;48.956;9.200;2022-07-10T12:08:10;212.07;;;201.93;;
11269;SDS011;5692;48.956;9.200;2022-07-10T12:10:38;214.77;;;204.50;;
11269;SDS011;5692;48.956;9.200;2022-07-10T12:13:06;213.13;;;202.93;;
11269;SDS011;5692;48.956;9.200;2022-07-10T12:15:44;205.60;;;195.75;;
11269;SDS011;5692;48.956;9.200;2022-07-10T12:18:20;204.85;;;195.05;;
11269;SDS011;5692;48.956;9.200;2022-07-10T12:20:47;196.27;;;186.88;;
11269;SDS011;5692;48.956;9.200;2022-07-10T12:23:16;201.13;;;191.50;;
11269;SDS011;5692;48.956;9.200;2022-07-10T12:25:43;201.15;;;191.50;;
11269;SDS011;5692;48.956;9.200;2022-07-10T12:28:09;201.85;;;192.20;;
11269;SDS011;5692;48.956;9.200;2022-07-10T12:33:12;213.23;;;203.02;;
11269;SDS011;5692;48.956;9.200;2022-07-10T12:35:48;216.95;;;206.55;;
11269;SDS011;5692;48.956;9.200;2022-07-10T12:38:25;222.07;;;211.48;;
11269;SDS011;5692;48.956;9.200;2022-07-10T12:41:04;214.30;;;204.05;;
11269;SDS011;5692;48.956;9.200;2022-07-10T12:43:31;216.63;;;206.25;;
11269;SDS011;5692;48.956;9.200;2022-07-10T12:46:11;215.07;;;204.77;;
11269;SDS011;5692;48.956;9.200;2022-07-10T12:52:18;226.65;;;215.80;;
11269;SDS011;5692;48.956;9.200;2022-07-10T12:56:59;218.18;;;207.77;;
11269;SDS011;5692;48.956;9.200;2022-07-10T12:59:29;204.75;;;194.95;;
11269;SDS011;5692;48.956;9.200;2022-07-10T13:01:58;200.35;;;190.75;;
11269;SDS011;5692;48.956;9.200;2022-07-10T13:04:24;202.30;;;192.60;;
11269;SDS011;5692;48.956;9.200;2022-07-10T13:06:52;205.05;;;195.25;;
11269;SDS011;5692;48.956;9.200;2022-07-10T13:09:25;216.35;;;206.00;;
11269;SDS011;5692;48.956;9.200;2022-07-10T13:11:51;212.48;;;202.27;;
11269;SDS011;5692;48.956;9.200;2022-07-10T13:14:18;205.70;;;195.90;;
11269;SDS011;5692;48.956;9.200;2022-07-10T13:16:44;206.77;;;196.88;;
11269;SDS011;5692;48.956;9.200;2022-07-10T13:19:10;212.57;;;202.40;;
11269;SDS011;5692;48.956;9.200;2022-07-10T13:21:37;221.98;;;211.35;;
11269;SDS011;5692;48.956;9.200;2022-07-10T13:24:03;220.68;;;210.13;;
11269;SDS011;5692;48.956;9.200;2022-07-10T13:26:30;206.75;;;196.85;;
11269;SDS011;5692;48.956;9.200;2022-07-10T13:28:56;215.35;;;205.05;;
11269;SDS011;5692;48.956;9.200;2022-07-10T13:31:27;211.25;;;201.15;;
11269;SDS011;5692;48.956;9.200;2022-07-10T13:33:56;219.45;;;208.95;;
11269;SDS011;5692;48.956;9.200;2022-07-10T13:36:24;217.75;;;207.35;;
11269;SDS011;5692;48.956;9.200;2022-07-10T13:38:57;206.23;;;196.35;;
11269;SDS011;5692;48.956;9.200;2022-07-10T13:41:29;207.52;;;197.57;;
11269;SDS011;5692;48.956;9.200;2022-07-10T13:43:58;213.02;;;202.82;;
11269;SDS011;5692;48.956;9.200;2022-07-10T13:46:26;215.43;;;205.13;;
11269;SDS011;5692;48.956;9.200;2022-07-10T13:48:52;218.82;;;208.32;;
11269;SDS011;5692;48.956;9.200;2022-07-10T13:51:21;214.13;;;203.88;;
11269;SDS011;5692;48.956;9.200;2022-07-10T13:53:47;202.70;;;193.00;;
11269;SDS011;5692;48.956;9.200;2022-07-10T13:56:16;209.52;;;199.52;;
11269;SDS011;5692;48.956;9.200;2022-07-10T13:58:43;202.35;;;192.68;;
11269;SDS011;5692;48.956;9.200;2022-07-10T14:01:11;208.07;;;198.13;;
11269;SDS011;5692;48.956;9.200;2022-07-10T14:03:37;229.10;;;218.13;;
11269;SDS011;5692;48.956;9.200;2022-07-10T14:06:03;207.55;;;197.60;;
11269;SDS011;5692;48.956;9.200;2022-07-10T14:08:29;231.70;;;220.60;;
11269;SDS011;5692;48.956;9.200;2022-07-10T14:10:58;223.60;;;212.90;;
11269;SDS011;5692;48.956;9.200;2022-07-10T14:13:24;214.95;;;204.65;;
11269;SDS011;5692;48.956;9.200;2022-07-10T14:15:51;227.45;;;216.55;;
11269;SDS011;5692;48.956;9.200;2022-07-10T14:18:17;215.40;;;205.10;;
11269;SDS011;5692;48.956;9.200;2022-07-10T14:21:00;221.50;;;210.90;;
11269;SDS011;5692;48.956;9.200;2022-07-10T14:23:29;191.10;;;181.95;;
11269;SDS011;5692;48.956;9.200;2022-07-10T14:26:04;207.77;;;197.82;;
11269;SDS011;5692;48.956;9.200;2022-07-10T14:28:31;200.68;;;191.07;;
11269;SDS011;5692;48.956;9.200;2022-07-10T14:30:59;205.15;;;195.32;;
11269;SDS011;5692;48.956;9.200;2022-07-10T14:33:28;215.20;;;204.90;;
11269;SDS011;5692;48.956;9.200;2022-07-10T14:35:54;237.23;;;225.90;;
11269;SDS011;5692;48.956;9.200;2022-07-10T14:38:20;216.23;;;205.90;;
11269;SDS011;5692;48.956;9.200;2022-07-10T14:40:46;218.07;;;207.63;;
11269;SDS011;5692;48.956;9.200;2022-07-10T14:43:12;216.13;;;205.80;;
11269;SDS011;5692;48.956;9.200;2022-07-10T14:45:41;214.13;;;203.90;;
11269;SDS011;5692;48.956;9.200;2022-07-10T14:48:07;225.50;;;214.70;;
11269;SDS011;5692;48.956;9.200;2022-07-10T14:50:33;221.17;;;210.57;;
11269;SDS011;5692;48.956;9.200;2022-07-10T14:52:59;231.77;;;220.67;;
11269;SDS011;5692;48.956;9.200;2022-07-10T14:55:25;219.77;;;209.27;;
11269;SDS011;5692;48.956;9.200;2022-07-10T14:57:51;229.27;;;218.30;;
11269;SDS011;5692;48.956;9.200;2022-07-10T15:00:17;225.50;;;214.70;;
11269;SDS011;5692;48.956;9.200;2022-07-10T15:02:43;232.90;;;221.77;;
11269;SDS011;5692;48.956;9.200;2022-07-10T15:05:10;228.33;;;217.43;;